Time;durP1;ratioP1;P1;durP2;ratioP2;P2;SDS_P1;SDS_P2;PMS_P1;PMS_P2;Temp;Humidity;BMP_temperature;BMP_pressure;BME280_temperature;BME280_humidity;BME280_pressure;Samples;Min_cycle;Max_cycle;Signal;HPM_P1;HPM_P2
2021/06/02 00:00:26;;;;;;;3.80;3.07;;;12.60;99.90;;;;;;5115387;28;20212;-55
2021/06/02 00:02:54;;;;;;;5.77;2.87;;;12.60;99.90;;;;;;5115270;28;20211;-56
2021/06/02 00:05:22;;;;;;;4.93;2.63;;;12.50;99.90;;;;;;5114853;28;20227;-55
2021/06/02 00:07:50;;;;;;;5.43;2.83;;;12.40;99.90;;;;;;5114828;28;20203;-55
2021/06/02 00:10:20;;;;;;;3.07;2.43;;;12.40;99.90;;;;;;5114860;28;20226;-55
2021/06/02 00:12:47;;;;;;;3.50;2.60;;;12.40;99.90;;;;;;5114902;28;20203;-55
2021/06/02 00:15:13;;;;;;;3.80;2.50;;;12.40;99.90;;;;;;5114527;28;20227;-55
2021/06/02 00:17:40;;;;;;;3.30;2.40;;;12.30;99.90;;;;;;5114694;28;20208;-55
2021/06/02 00:20:08;;;;;;;3.57;2.60;;;12.30;99.90;;;;;;5114522;28;20215;-55
2021/06/02 00:22:34;;;;;;;2.60;2.37;;;12.20;99.90;;;;;;5115214;28;20203;-58
2021/06/02 00:25:02;;;;;;;3.57;2.60;;;12.10;99.90;;;;;;5114822;28;20576;-56
2021/06/02 00:27:30;;;;;;;2.63;2.43;;;12.10;99.90;;;;;;5114592;28;20204;-56
2021/06/02 00:30:00;;;;;;;2.90;2.60;;;12.10;99.90;;;;;;5114535;28;20208;-56
2021/06/02 00:32:27;;;;;;;5.33;2.63;;;12.00;99.90;;;;;;5115155;28;20227;-56
2021/06/02 00:34:53;;;;;;;2.90;2.57;;;12.00;99.90;;;;;;5114255;28;20499;-57
2021/06/02 00:37:20;;;;;;;3.27;2.60;;;12.00;99.90;;;;;;5114575;28;20207;-56
2021/06/02 00:39:47;;;;;;;3.47;2.90;;;11.80;99.90;;;;;;5114426;28;20576;-56
2021/06/02 00:42:15;;;;;;;3.70;2.70;;;11.80;99.90;;;;;;5113790;28;20200;-56
2021/06/02 00:44:42;;;;;;;2.90;2.57;;;11.70;99.90;;;;;;5113923;28;20220;-56
2021/06/02 00:47:08;;;;;;;5.00;2.40;;;11.70;99.90;;;;;;5114137;28;20207;-56
2021/06/02 00:49:34;;;;;;;3.97;2.73;;;11.70;99.90;;;;;;5113684;28;20203;-56
2021/06/02 00:52:03;;;;;;;5.60;2.57;;;11.60;99.90;;;;;;5113968;28;20733;-56
2021/06/02 00:54:34;;;;;;;3.73;2.37;;;11.60;99.90;;;;;;5113851;28;20231;-56
2021/06/02 00:57:04;;;;;;;2.80;2.50;;;11.50;99.90;;;;;;5113817;28;20208;-56
2021/06/02 00:59:34;;;;;;;4.70;2.93;;;11.40;99.90;;;;;;5113753;28;20204;-56
2021/06/02 01:02:02;;;;;;;2.77;2.53;;;11.30;99.90;;;;;;5114010;28;20210;-56
2021/06/02 01:04:28;;;;;;;3.57;2.43;;;11.30;99.90;;;;;;5113713;28;20227;-56
2021/06/02 01:06:56;;;;;;;4.70;3.10;;;11.30;99.90;;;;;;5114279;28;20204;-56
2021/06/02 01:09:25;;;;;;;3.07;2.63;;;11.30;99.90;;;;;;5113567;28;20204;-56
2021/06/02 01:11:52;;;;;;;3.53;2.70;;;11.40;99.90;;;;;;5113576;28;20219;-56
2021/06/02 01:14:20;;;;;;;9.93;3.07;;;11.40;99.90;;;;;;5113388;28;20224;-56
2021/06/02 01:16:48;;;;;;;3.33;2.57;;;11.50;99.90;;;;;;5113342;28;20212;-56
2021/06/02 01:19:20;;;;;;;3.10;2.80;;;11.40;99.90;;;;;;5113721;28;20211;-56
2021/06/02 01:21:53;;;;;;;2.87;2.50;;;11.30;99.90;;;;;;5113508;28;20200;-56
2021/06/02 01:24:20;;;;;;;3.37;2.83;;;11.30;99.90;;;;;;5113291;28;20223;-56
2021/06/02 01:26:52;;;;;;;3.63;2.90;;;11.20;99.90;;;;;;5113448;28;20204;-56
2021/06/02 01:29:18;;;;;;;4.93;2.70;;;11.00;99.90;;;;;;5113031;28;20210;-56
2021/06/02 01:31:59;;;;;;;3.60;3.00;;;11.00;99.90;;;;;;5113522;28;20220;-56
2021/06/02 01:34:40;;;;;;;4.53;2.80;;;11.00;99.90;;;;;;5113328;28;20281;-57
2021/06/02 01:37:19;;;;;;;3.43;2.70;;;11.00;99.90;;;;;;5113574;28;20214;-57
2021/06/02 01:40:08;;;;;;;3.07;2.60;;;11.10;99.90;;;;;;5113010;28;20698;-57
2021/06/02 01:42:44;;;;;;;5.33;2.50;;;11.10;99.90;;;;;;5113589;28;20225;-57
2021/06/02 01:45:36;;;;;;;2.80;2.47;;;11.10;99.90;;;;;;5113329;28;20269;-57
2021/06/02 01:48:34;;;;;;;4.53;2.43;;;11.00;99.90;;;;;;5112971;28;20210;-57
2021/06/02 01:51:25;;;;;;;5.80;2.97;;;11.00;99.90;;;;;;5113196;28;20223;-56
2021/06/02 01:54:21;;;;;;;4.30;2.60;;;11.00;99.90;;;;;;5112220;28;20208;-57
2021/06/02 01:57:14;;;;;;;2.50;2.30;;;11.00;99.90;;;;;;5113137;28;20247;-57
2021/06/02 02:00:04;;;;;;;6.70;2.43;;;10.90;99.90;;;;;;5112659;28;20203;-57
2021/06/02 02:03:05;;;;;;;2.80;2.27;;;10.90;99.90;;;;;;5112991;28;20245;-57
2021/06/02 02:06:11;;;;;;;3.40;2.57;;;10.90;99.90;;;;;;5112334;28;20739;-57
2021/06/02 02:08:44;;;;;;;4.27;2.60;;;10.90;99.90;;;;;;5112630;28;20667;-55
2021/06/02 02:11:31;;;;;;;2.80;2.50;;;11.00;99.90;;;;;;5112039;28;20223;-58
2021/06/02 02:14:30;;;;;;;3.17;2.57;;;11.00;99.90;;;;;;5112229;28;20207;-55
2021/06/02 02:17:22;;;;;;;4.83;2.73;;;11.00;99.90;;;;;;5112244;28;20668;-55
2021/06/02 02:20:00;;;;;;;4.00;2.47;;;11.10;99.90;;;;;;5112275;28;20204;-56
2021/06/02 02:22:50;;;;;;;4.73;2.60;;;11.10;99.90;;;;;;5112296;28;20203;-55
2021/06/02 02:25:23;;;;;;;3.00;2.70;;;11.20;99.90;;;;;;5111882;28;20224;-55
2021/06/02 02:28:05;;;;;;;5.50;2.80;;;11.20;99.90;;;;;;5111991;28;20686;-55
2021/06/02 02:30:42;;;;;;;4.07;2.80;;;11.20;99.90;;;;;;5112129;28;20203;-55
2021/06/02 02:33:20;;;;;;;3.63;2.83;;;11.20;99.90;;;;;;5112097;28;20207;-55
2021/06/02 02:35:57;;;;;;;6.37;3.20;;;11.20;99.90;;;;;;5112158;28;20235;-55
2021/06/02 02:38:35;;;;;;;3.93;2.80;;;11.20;99.90;;;;;;5111964;28;20203;-55
2021/06/02 02:41:10;;;;;;;3.73;3.10;;;11.20;99.90;;;;;;5112246;28;20229;-55
2021/06/02 02:43:57;;;;;;;4.83;2.93;;;11.20;99.90;;;;;;5111755;28;20207;-56
2021/06/02 02:46:31;;;;;;;3.70;2.90;;;11.10;99.90;;;;;;5111599;28;20218;-55
2021/06/02 02:49:09;;;;;;;3.30;2.50;;;11.10;99.90;;;;;;5111899;28;20216;-56
2021/06/02 02:51:52;;;;;;;2.50;2.30;;;11.00;99.90;;;;;;5111635;28;20216;-55
2021/06/02 02:54:23;;;;;;;4.37;2.40;;;11.00;99.90;;;;;;5111372;28;20225;-55
2021/06/02 02:56:58;;;;;;;3.33;2.50;;;11.00;99.90;;;;;;5111566;28;20253;-55
2021/06/02 02:59:31;;;;;;;3.63;2.83;;;11.00;99.90;;;;;;5111764;28;20252;-56
2021/06/02 03:02:02;;;;;;;4.00;2.57;;;11.00;99.90;;;;;;5112194;28;20303;-56
2021/06/02 03:04:30;;;;;;;8.90;2.73;;;11.10;99.90;;;;;;5111502;28;20714;-55
2021/06/02 03:06:59;;;;;;;3.27;2.50;;;11.10;99.90;;;;;;5111348;28;20257;-57
2021/06/02 03:09:31;;;;;;;4.00;2.87;;;11.10;99.90;;;;;;5111041;28;20207;-55
2021/06/02 03:12:09;;;;;;;2.50;2.30;;;11.00;99.90;;;;;;5111539;28;20297;-55
2021/06/02 03:14:54;;;;;;;3.57;2.80;;;11.10;99.90;;;;;;5111318;28;20597;-55
2021/06/02 03:17:26;;;;;;;6.90;2.73;;;11.00;99.90;;;;;;5111432;28;20268;-55
2021/06/02 03:20:00;;;;;;;3.93;2.80;;;11.00;99.90;;;;;;5111575;28;20243;-55
2021/06/02 03:22:35;;;;;;;2.57;2.33;;;11.00;99.90;;;;;;5111572;28;20204;-56
2021/06/02 03:25:09;;;;;;;3.17;2.77;;;11.00;99.90;;;;;;5111929;28;20228;-55
2021/06/02 03:27:44;;;;;;;5.87;2.67;;;10.90;99.90;;;;;;5111386;28;20263;-56
2021/06/02 03:30:23;;;;;;;3.00;2.70;;;10.80;99.90;;;;;;5111475;28;20206;-56
2021/06/02 03:33:03;;;;;;;4.07;2.70;;;10.80;99.90;;;;;;5111642;28;20223;-56
2021/06/02 03:35:36;;;;;;;3.50;2.83;;;10.70;99.90;;;;;;5111368;28;20258;-56
2021/06/02 03:38:09;;;;;;;5.83;3.30;;;10.70;99.90;;;;;;5111009;28;20671;-56
2021/06/02 03:40:49;;;;;;;4.03;2.90;;;10.60;99.90;;;;;;5111061;28;20698;-55
2021/06/02 03:43:22;;;;;;;3.40;2.87;;;10.60;99.90;;;;;;5111236;28;20203;-55
2021/06/02 03:46:01;;;;;;;2.90;2.60;;;10.60;99.90;;;;;;5111119;28;20637;-56
2021/06/02 03:48:41;;;;;;;3.30;2.70;;;10.60;99.90;;;;;;5110964;28;20219;-56
2021/06/02 03:51:18;;;;;;;3.17;2.87;;;10.70;99.90;;;;;;5111269;28;20282;-55
2021/06/02 03:54:02;;;;;;;3.77;2.70;;;10.70;99.90;;;;;;5110852;28;20861;-55
2021/06/02 03:56:44;;;;;;;3.97;3.03;;;10.70;99.90;;;;;;5111233;28;20242;-56
2021/06/02 03:59:17;;;;;;;4.67;2.97;;;10.70;99.90;;;;;;5110724;28;20199;-55
2021/06/02 04:01:53;;;;;;;3.97;2.90;;;10.70;99.90;;;;;;5111097;28;20245;-56
2021/06/02 04:04:28;;;;;;;5.30;3.17;;;10.70;99.90;;;;;;5110682;28;20711;-57
2021/06/02 04:07:02;;;;;;;5.10;2.90;;;10.70;99.90;;;;;;5110808;28;20207;-55
2021/06/02 04:09:31;;;;;;;4.23;2.63;;;10.70;99.90;;;;;;5110604;28;20208;-56
2021/06/02 04:12:11;;;;;;;3.47;2.90;;;10.80;99.90;;;;;;5111732;28;20219;-56
2021/06/02 04:14:38;;;;;;;3.97;3.57;;;10.80;99.90;;;;;;5111194;28;20318;-56
2021/06/02 04:17:07;;;;;;;4.07;3.20;;;10.90;99.90;;;;;;5111367;28;20276;-56
2021/06/02 04:19:34;;;;;;;4.80;3.60;;;11.00;99.90;;;;;;5114775;28;20207;-56
2021/06/02 04:22:03;;;;;;;9.03;5.03;;;11.00;99.90;;;;;;5114453;28;20581;-56
2021/06/02 04:24:31;;;;;;;4.50;3.33;;;11.10;99.90;;;;;;5114985;28;20230;-56
2021/06/02 04:26:58;;;;;;;9.87;4.20;;;11.20;99.90;;;;;;5115272;28;20207;-56
2021/06/02 04:29:25;;;;;;;6.60;3.47;;;11.30;99.90;;;;;;5114363;28;20214;-56
2021/06/02 04:31:54;;;;;;;5.13;3.43;;;11.40;99.90;;;;;;5114326;28;20246;-56
2021/06/02 04:34:23;;;;;;;11.27;8.97;;;11.50;99.90;;;;;;5114153;28;20230;-56
2021/06/02 04:36:52;;;;;;;7.70;6.17;;;11.60;99.90;;;;;;5114496;28;20575;-56
2021/06/02 04:39:20;;;;;;;16.47;11.87;;;11.70;99.90;;;;;;5114969;28;20207;-55
2021/06/02 04:41:47;;;;;;;11.57;8.40;;;11.70;99.90;;;;;;5114850;28;20625;-55
2021/06/02 04:44:15;;;;;;;5.70;4.27;;;11.90;99.90;;;;;;5114418;28;20242;-55
2021/06/02 04:46:42;;;;;;;6.10;3.07;;;12.00;99.90;;;;;;5114183;28;20211;-56
2021/06/02 04:49:08;;;;;;;6.47;4.40;;;12.10;99.90;;;;;;5114445;28;20671;-56
2021/06/02 04:52:12;;;;;;;6.30;2.80;;;12.30;99.90;;;;;;5114488;28;20231;-56
2021/06/02 04:55:04;;;;;;;5.00;3.60;;;12.60;99.90;;;;;;5113924;28;20227;-56
2021/06/02 04:58:08;;;;;;;9.37;3.87;;;13.00;99.90;;;;;;5113805;28;20200;-56
2021/06/02 05:01:21;;;;;;;6.27;4.07;;;13.70;99.90;;;;;;5113911;28;20203;-55
2021/06/02 05:04:20;;;;;;;8.67;4.27;;;15.50;98.00;;;;;;5094517;28;20204;-56
2021/06/02 05:07:28;;;;;;;7.00;4.93;;;16.70;94.60;;;;;;5108979;27;20207;-57
2021/06/02 05:10:46;;;;;;;11.83;5.17;;;17.70;92.20;;;;;;5113546;28;20219;-56
2021/06/02 05:13:38;;;;;;;5.63;3.92;;;19.90;86.30;;;;;;5113763;28;20228;-57
2021/06/02 05:16:42;;;;;;;4.63;2.90;;;22.10;76.40;;;;;;5113649;28;20590;-55
2021/06/02 05:19:57;;;;;;;4.30;2.70;;;24.40;65.90;;;;;;5113499;28;20207;-56
2021/06/02 05:22:55;;;;;;;3.08;2.25;;;26.20;59.90;;;;;;5113646;28;20275;-57
2021/06/02 05:25:58;;;;;;;4.05;2.47;;;26.50;55.80;;;;;;5113319;28;20223;-57
2021/06/02 05:28:57;;;;;;;5.82;2.70;;;27.20;54.40;;;;;;5110598;28;20211;-57
2021/06/02 05:31:55;;;;;;;4.72;2.40;;;27.90;53.00;;;;;;5113462;28;20293;-57
2021/06/02 05:34:52;;;;;;;4.38;2.50;;;28.20;51.30;;;;;;5113935;28;20707;-57
2021/06/02 05:37:54;;;;;;;6.55;3.72;;;28.60;50.00;;;;;;5114462;28;20215;-58
2021/06/02 05:40:41;;;;;;;3.17;2.40;;;30.20;47.70;;;;;;5113207;28;20210;-58
2021/06/02 05:43:53;;;;;;;4.15;2.50;;;31.90;43.80;;;;;;5112947;28;20214;-58
2021/06/02 05:46:57;;;;;;;3.70;2.38;;;32.70;42.40;;;;;;5107497;28;20575;-57
2021/06/02 05:50:00;;;;;;;5.03;2.60;;;33.40;40.60;;;;;;5112798;28;20200;-58
2021/06/02 05:53:01;;;;;;;2.63;2.00;;;34.50;39.90;;;;;;5050003;28;20230;-58
2021/06/02 05:55:50;;;;;;;2.63;1.90;;;35.60;36.60;;;;;;5089102;28;20283;-58
2021/06/02 05:58:46;;;;;;;5.22;2.40;;;36.70;34.00;;;;;;5113007;28;20550;-58
2021/06/02 06:01:56;;;;;;;5.93;2.03;;;37.40;33.10;;;;;;5113115;28;20203;-58
2021/06/02 06:05:12;;;;;;;3.33;2.10;;;38.10;31.90;;;;;;5112590;28;20231;-58
2021/06/02 06:08:18;;;;;;;3.33;1.75;;;38.60;31.60;;;;;;5112806;28;20698;-57
2021/06/02 06:11:28;;;;;;;2.55;1.90;;;39.20;30.70;;;;;;5112620;28;20219;-58
2021/06/02 06:14:36;;;;;;;5.75;1.98;;;39.60;30.50;;;;;;5112523;28;20268;-58
2021/06/02 06:17:25;;;;;;;4.97;2.15;;;40.20;29.80;;;;;;5112630;28;20200;-58
2021/06/02 06:20:15;;;;;;;7.30;2.05;;;40.70;28.80;;;;;;5112450;28;20210;-58
2021/06/02 06:23:02;;;;;;;2.97;1.60;;;40.80;28.50;;;;;;5112512;28;20200;-57
2021/06/02 06:25:35;;;;;;;3.22;1.60;;;41.00;28.20;;;;;;5112362;28;20223;-57
2021/06/02 06:28:18;;;;;;;2.70;1.65;;;40.90;28.00;;;;;;5112485;28;20236;-57
2021/06/02 06:30:49;;;;;;;2.55;1.40;;;40.80;27.60;;;;;;5112812;28;20199;-58
2021/06/02 06:33:16;;;;;;;3.80;1.80;;;40.70;27.70;;;;;;5112180;28;20691;-57
2021/06/02 06:35:45;;;;;;;5.63;1.83;;;40.70;27.40;;;;;;5112023;28;20279;-57
2021/06/02 06:38:14;;;;;;;6.25;1.73;;;40.80;27.60;;;;;;5112182;28;20230;-58
2021/06/02 06:40:40;;;;;;;3.95;1.70;;;41.00;27.10;;;;;;5111707;28;20203;-57
2021/06/02 06:43:13;;;;;;;4.45;1.98;;;41.20;27.10;;;;;;5111937;28;20204;-57
2021/06/02 06:45:41;;;;;;;2.78;1.73;;;41.50;27.00;;;;;;5111860;28;20227;-58
2021/06/02 06:48:11;;;;;;;3.22;1.55;;;41.50;27.00;;;;;;5111692;28;20221;-57
2021/06/02 06:50:38;;;;;;;2.92;1.50;;;41.40;26.30;;;;;;5112184;28;20211;-57
2021/06/02 06:53:06;;;;;;;6.05;1.77;;;40.70;26.90;;;;;;5094048;28;20228;-59
2021/06/02 06:55:34;;;;;;;4.93;1.75;;;40.50;26.90;;;;;;5091055;28;20228;-57
2021/06/02 06:58:01;;;;;;;2.00;1.55;;;39.90;27.20;;;;;;5091127;28;20676;-57
2021/06/02 07:00:30;;;;;;;3.92;1.27;;;39.40;27.60;;;;;;5091178;28;20211;-57
2021/06/02 07:02:57;;;;;;;2.88;1.52;;;39.30;27.60;;;;;;5090955;28;20215;-57
2021/06/02 07:05:24;;;;;;;4.93;1.75;;;39.50;27.60;;;;;;5090958;28;20606;-58
2021/06/02 07:07:51;;;;;;;3.65;1.63;;;39.70;27.30;;;;;;5091134;28;20208;-58
2021/06/02 07:10:17;;;;;;;3.00;1.45;;;39.90;27.20;;;;;;5091088;28;20680;-58
2021/06/02 07:12:46;;;;;;;6.55;1.80;;;40.20;27.10;;;;;;5091065;28;20227;-59
2021/06/02 07:15:14;;;;;;;3.72;1.52;;;40.70;26.80;;;;;;5090956;28;20821;-60
2021/06/02 07:17:45;;;;;;;2.22;1.52;;;40.80;26.80;;;;;;5091568;28;20208;-61
2021/06/02 07:20:14;;;;;;;4.30;1.48;;;41.30;26.20;;;;;;5091457;28;20200;-62
2021/06/02 07:22:44;;;;;;;3.15;1.65;;;41.70;26.20;;;;;;5091456;28;20204;-62
2021/06/02 07:25:14;;;;;;;6.70;1.70;;;42.00;26.10;;;;;;5092446;28;20607;-64
2021/06/02 07:27:41;;;;;;;1.67;1.50;;;42.40;25.90;;;;;;5092250;28;20204;-62
2021/06/02 07:30:08;;;;;;;3.17;1.70;;;42.50;25.70;;;;;;5091835;28;20206;-62
2021/06/02 07:32:34;;;;;;;6.10;1.60;;;42.80;25.60;;;;;;5091621;28;20231;-62
2021/06/02 07:35:02;;;;;;;4.50;1.52;;;42.60;25.60;;;;;;5091740;28;20228;-63
2021/06/02 07:37:29;;;;;;;5.72;1.95;;;42.60;26.00;;;;;;5091142;28;20271;-61
2021/06/02 07:39:55;;;;;;;2.33;1.58;;;42.90;25.60;;;;;;5091261;28;20204;-62
2021/06/02 07:42:21;;;;;;;2.70;1.70;;;43.40;25.20;;;;;;5091449;28;20203;-62
2021/06/02 07:44:47;;;;;;;2.97;1.73;;;43.90;25.00;;;;;;5090997;28;20227;-61
2021/06/02 07:47:13;;;;;;;3.50;1.27;;;44.30;24.80;;;;;;5091019;28;20208;-62
2021/06/02 07:49:40;;;;;;;3.28;1.45;;;44.70;24.20;;;;;;5089821;28;20214;-63
2021/06/02 07:52:07;;;;;;;4.50;1.80;;;44.60;24.10;;;;;;5090736;28;20220;-63
2021/06/02 07:54:34;;;;;;;4.45;2.20;;;44.50;24.60;;;;;;5093935;28;20766;-63
2021/06/02 07:57:00;;;;;;;6.03;2.40;;;44.70;24.60;;;;;;5094252;28;20740;-59
2021/06/02 07:59:26;;;;;;;4.78;1.90;;;45.10;24.10;;;;;;5094884;28;20208;-64
2021/06/02 08:01:52;;;;;;;5.53;1.90;;;45.40;23.90;;;;;;5094799;28;20196;-59
2021/06/02 08:04:18;;;;;;;4.28;2.00;;;45.80;24.00;;;;;;5094763;28;20227;-59
2021/06/02 08:06:45;;;;;;;3.45;1.27;;;46.20;23.60;;;;;;5094389;28;20214;-59
2021/06/02 08:09:17;;;;;;;4.35;1.48;;;46.40;23.00;;;;;;5094261;28;20615;-58
2021/06/02 08:11:43;;;;;;;2.75;1.52;;;45.10;24.00;;;;;;5094464;28;20227;-58
2021/06/02 08:14:10;;;;;;;4.30;1.30;;;44.00;24.50;;;;;;5094191;28;20224;-58
2021/06/02 08:16:36;;;;;;;2.85;1.48;;;43.40;24.80;;;;;;5094413;28;20261;-58
2021/06/02 08:19:02;;;;;;;2.42;1.63;;;43.70;24.70;;;;;;5094150;28;20207;-59
2021/06/02 08:21:28;;;;;;;3.25;1.60;;;43.90;25.00;;;;;;5094245;28;20592;-58
2021/06/02 08:23:55;;;;;;;5.15;1.60;;;43.90;24.30;;;;;;5093909;28;20211;-58
2021/06/02 08:26:22;;;;;;;2.78;1.50;;;43.80;24.40;;;;;;5094253;28;20204;-58
2021/06/02 08:28:48;;;;;;;4.35;1.50;;;44.00;24.00;;;;;;5093619;28;20203;-58
2021/06/02 08:31:15;;;;;;;2.05;1.45;;;44.00;24.20;;;;;;5093710;28;20262;-57
2021/06/02 08:33:42;;;;;;;3.97;1.80;;;44.10;23.90;;;;;;5094152;28;20627;-57
2021/06/02 08:36:09;;;;;;;2.00;1.40;;;43.60;24.10;;;;;;5094086;28;20243;-57
2021/06/02 08:38:35;;;;;;;2.30;1.25;;;42.90;24.60;;;;;;5093770;28;20204;-57
2021/06/02 08:41:02;;;;;;;3.78;1.70;;;42.40;24.80;;;;;;5093980;28;20748;-57
2021/06/02 08:43:29;;;;;;;2.47;1.40;;;41.90;25.10;;;;;;5093938;28;20208;-57
2021/06/02 08:45:56;;;;;;;5.05;1.70;;;40.80;25.50;;;;;;5093915;28;20738;-57
2021/06/02 08:48:23;;;;;;;1.88;1.52;;;38.80;26.60;;;;;;5093946;28;20230;-58
2021/06/02 08:50:49;;;;;;;4.53;1.67;;;36.60;27.50;;;;;;5093504;28;20207;-59
2021/06/02 08:53:17;;;;;;;2.65;1.70;;;34.10;29.30;;;;;;5093649;28;20572;-56
2021/06/02 08:55:45;;;;;;;2.45;1.30;;;32.10;30.80;;;;;;5093824;28;20265;-61
2021/06/02 08:58:16;;;;;;;6.32;1.67;;;30.90;32.20;;;;;;5093892;28;20204;-57
2021/06/02 09:00:44;;;;;;;5.72;1.80;;;30.10;32.60;;;;;;5093963;28;20227;-61
2021/06/02 09:03:10;;;;;;;1.77;1.35;;;29.30;33.10;;;;;;5093351;28;20262;-57
2021/06/02 09:05:36;;;;;;;1.98;1.30;;;28.50;33.20;;;;;;5093495;28;20220;-57
2021/06/02 09:08:04;;;;;;;2.50;1.15;;;27.60;34.20;;;;;;5093611;28;20204;-58
2021/06/02 09:10:37;;;;;;;3.45;1.30;;;26.90;33.40;;;;;;5093828;28;20283;-58
2021/06/02 09:13:03;;;;;;;2.42;1.35;;;26.40;32.90;;;;;;5093430;28;20231;-58
2021/06/02 09:15:33;;;;;;;3.67;1.30;;;25.90;32.60;;;;;;5093132;28;20236;-57
2021/06/02 09:18:04;;;;;;;3.70;1.60;;;25.70;34.20;;;;;;5093124;28;20200;-58
2021/06/02 09:20:41;;;;;;;2.53;1.40;;;25.30;34.80;;;;;;5093878;28;20208;-57
2021/06/02 09:23:27;;;;;;;3.15;1.45;;;25.10;34.50;;;;;;5094401;28;20212;-58
2021/06/02 09:25:58;;;;;;;2.78;1.38;;;24.80;36.60;;;;;;5093216;28;20228;-58
2021/06/02 09:28:44;;;;;;;7.43;1.42;;;24.60;36.30;;;;;;5093061;28;20200;-58
2021/06/02 09:31:22;;;;;;;2.85;1.40;;;24.70;36.70;;;;;;5093563;28;20679;-58
2021/06/02 09:33:50;;;;;;;5.97;1.35;;;24.80;37.00;;;;;;5092915;28;20675;-58
2021/06/02 09:36:16;;;;;;;2.35;1.80;;;24.80;37.00;;;;;;5093344;28;20208;-58
2021/06/02 09:38:51;;;;;;;1.70;1.50;;;24.90;36.70;;;;;;5092802;28;20688;-58
2021/06/02 09:41:18;;;;;;;2.75;1.40;;;24.90;36.80;;;;;;5093196;28;20210;-58
2021/06/02 09:43:44;;;;;;;4.25;2.20;;;25.00;36.20;;;;;;5093028;28;20204;-58
2021/06/02 09:46:14;;;;;;;4.82;2.03;;;25.00;36.40;;;;;;5092746;28;20224;-58
2021/06/02 09:48:42;;;;;;;2.65;1.60;;;25.10;36.20;;;;;;5092466;28;20564;-59
2021/06/02 09:51:34;;;;;;;3.55;1.73;;;25.20;35.80;;;;;;5092587;28;20211;-59
2021/06/02 09:54:03;;;;;;;5.45;1.50;;;25.20;35.90;;;;;;5092456;28;20200;-58
2021/06/02 09:56:36;;;;;;;2.47;1.45;;;25.20;35.80;;;;;;5092833;28;20219;-58
2021/06/02 09:59:04;;;;;;;3.83;1.77;;;25.10;35.20;;;;;;5092291;28;20208;-59
2021/06/02 10:01:52;;;;;;;1.63;1.30;;;24.90;35.20;;;;;;5092826;28;20757;-59
2021/06/02 10:04:19;;;;;;;2.90;1.42;;;24.90;35.60;;;;;;5112857;28;20274;-59
2021/06/02 10:06:47;;;;;;;2.92;1.42;;;24.80;35.50;;;;;;5112982;28;20245;-62
2021/06/02 10:09:13;;;;;;;4.28;1.52;;;24.80;34.60;;;;;;5113126;28;20218;-61
2021/06/02 10:11:55;;;;;;;3.50;1.70;;;24.80;34.50;;;;;;5112993;28;20219;-62
2021/06/02 10:14:21;;;;;;;2.03;1.40;;;24.90;34.90;;;;;;5112576;28;20229;-61
2021/06/02 10:16:47;;;;;;;4.47;1.52;;;25.00;34.50;;;;;;5112490;28;20199;-61
2021/06/02 10:19:14;;;;;;;2.97;1.25;;;25.10;34.00;;;;;;5112819;28;20207;-60
2021/06/02 10:21:44;;;;;;;3.03;1.33;;;25.10;34.00;;;;;;5112899;28;20203;-63
2021/06/02 10:24:12;;;;;;;4.20;1.50;;;25.20;34.10;;;;;;5113164;28;20224;-65
2021/06/02 10:26:39;;;;;;;3.15;1.40;;;25.40;34.00;;;;;;5113001;28;20268;-61
2021/06/02 10:29:06;;;;;;;2.75;1.40;;;25.60;34.50;;;;;;5113101;28;20298;-63
2021/06/02 10:31:33;;;;;;;3.67;1.55;;;25.70;33.50;;;;;;5112462;28;20204;-64
2021/06/02 10:33:59;;;;;;;2.80;1.30;;;25.80;32.80;;;;;;5112454;28;20675;-63
2021/06/02 10:36:26;;;;;;;1.33;1.10;;;25.70;32.70;;;;;;5112451;28;20207;-62
2021/06/02 10:38:55;;;;;;;1.73;1.40;;;25.60;33.20;;;;;;5112420;28;20686;-63
2021/06/02 10:41:28;;;;;;;1.48;1.30;;;25.70;32.90;;;;;;5112513;28;20218;-61
2021/06/02 10:44:00;;;;;;;1.77;1.40;;;25.70;33.40;;;;;;5112038;28;20240;-60
2021/06/02 10:46:27;;;;;;;1.55;1.25;;;25.60;33.30;;;;;;5111928;27;20210;-61
2021/06/02 10:48:55;;;;;;;1.45;1.13;;;25.60;34.30;;;;;;5111871;27;20203;-60
2021/06/02 10:51:26;;;;;;;5.07;2.45;;;25.60;34.70;;;;;;5111976;28;20203;-63
2021/06/02 10:54:06;;;;;;;2.00;1.30;;;25.70;34.60;;;;;;5111401;27;20585;-63
2021/06/02 10:56:34;;;;;;;2.63;1.23;;;25.90;34.90;;;;;;5112202;28;20393;-62
2021/06/02 10:59:01;;;;;;;1.60;1.33;;;26.00;34.70;;;;;;5111976;28;20200;-62
2021/06/02 11:01:30;;;;;;;3.25;1.33;;;26.20;35.50;;;;;;5112397;28;20286;-61
2021/06/02 11:04:12;;;;;;;2.85;1.27;;;26.30;34.60;;;;;;5112505;28;20207;-62
2021/06/02 11:06:41;;;;;;;2.80;1.13;;;26.50;34.10;;;;;;5112490;28;20214;-61
2021/06/02 11:09:21;;;;;;;2.25;1.90;;;26.50;33.50;;;;;;5111985;28;20200;-62
2021/06/02 11:12:02;;;;;;;1.80;1.20;;;26.40;33.70;;;;;;5111515;28;20199;-58
2021/06/02 11:14:28;;;;;;;3.22;1.48;;;26.40;33.60;;;;;;5111335;28;20223;-58
2021/06/02 11:17:00;;;;;;;1.73;1.25;;;26.30;33.60;;;;;;5111677;28;20211;-58
2021/06/02 11:19:30;;;;;;;1.30;1.20;;;26.20;33.50;;;;;;5111806;28;20294;-58
2021/06/02 11:22:01;;;;;;;2.67;1.10;;;26.30;32.60;;;;;;5111449;28;20205;-58
2021/06/02 11:24:40;;;;;;;1.48;1.30;;;26.30;32.80;;;;;;5110913;28;20226;-58
2021/06/02 11:27:34;;;;;;;2.75;1.30;;;26.40;33.20;;;;;;5112708;28;20203;-58
2021/06/02 11:30:26;;;;;;;2.40;1.35;;;26.50;33.60;;;;;;5115368;28;20581;-58
2021/06/02 11:32:59;;;;;;;2.28;1.30;;;26.60;33.00;;;;;;5115316;28;20222;-59
2021/06/02 11:36:02;;;;;;;3.28;1.05;;;26.60;32.70;;;;;;5115150;28;20224;-58
2021/06/02 11:38:28;;;;;;;3.28;1.20;;;26.60;32.60;;;;;;5115456;28;20593;-58
2021/06/02 11:40:55;;;;;;;3.15;1.20;;;26.60;32.60;;;;;;5115405;28;20211;-58
2021/06/02 11:43:23;;;;;;;2.55;1.48;;;26.70;32.50;;;;;;5115562;28;20199;-58
2021/06/02 11:45:50;;;;;;;2.05;1.00;;;26.80;31.90;;;;;;5114933;28;20314;-58
2021/06/02 11:48:25;;;;;;;2.38;1.00;;;26.80;32.00;;;;;;5115230;28;20203;-58
2021/06/02 11:50:52;;;;;;;3.65;1.15;;;26.70;31.50;;;;;;5115134;28;20644;-58
2021/06/02 11:53:18;;;;;;;3.15;1.27;;;26.60;31.00;;;;;;5114971;28;20265;-59
2021/06/02 11:55:45;;;;;;;3.75;1.10;;;26.70;30.70;;;;;;5114887;28;20573;-58
2021/06/02 11:58:11;;;;;;;4.40;2.10;;;26.80;30.30;;;;;;5114707;28;20233;-59
2021/06/02 12:00:40;;;;;;;1.85;1.23;;;26.80;30.70;;;;;;5114985;28;20207;-58
2021/06/02 12:03:08;;;;;;;1.42;1.30;;;26.80;30.40;;;;;;5114794;28;20298;-58
2021/06/02 12:05:35;;;;;;;1.75;1.00;;;26.80;30.10;;;;;;5114619;28;20220;-58
2021/06/02 12:08:03;;;;;;;1.75;0.95;;;26.80;29.90;;;;;;5114467;28;20199;-58
2021/06/02 12:10:31;;;;;;;3.75;1.92;;;26.80;29.90;;;;;;5114686;28;20215;-58
2021/06/02 12:12:57;;;;;;;2.95;1.40;;;27.00;29.50;;;;;;5114090;28;20604;-59
2021/06/02 12:15:24;;;;;;;3.38;1.30;;;27.20;29.10;;;;;;5114612;28;20224;-58
2021/06/02 12:17:53;;;;;;;3.17;1.25;;;27.30;28.20;;;;;;5114575;28;20207;-59
2021/06/02 12:20:21;;;;;;;1.30;1.00;;;27.60;27.60;;;;;;5114601;28;20211;-58
2021/06/02 12:22:49;;;;;;;2.25;1.00;;;27.70;27.80;;;;;;5114373;28;20690;-58
2021/06/02 12:25:17;;;;;;;2.33;1.10;;;27.90;27.80;;;;;;5114125;28;20231;-59
2021/06/02 12:27:45;;;;;;;1.67;1.15;;;28.00;27.70;;;;;;5114569;28;20589;-58
2021/06/02 12:30:19;;;;;;;1.92;1.10;;;27.90;27.80;;;;;;5114471;28;20203;-59
2021/06/02 12:32:51;;;;;;;2.83;0.93;;;27.90;28.30;;;;;;5114174;28;20591;-58
2021/06/02 12:35:31;;;;;;;1.77;0.90;;;28.10;28.10;;;;;;5113987;28;20292;-58
2021/06/02 12:38:05;;;;;;;2.17;0.70;;;28.10;25.90;;;;;;5113498;28;20588;-59
2021/06/02 12:40:32;;;;;;;0.73;0.70;;;28.10;25.10;;;;;;5114145;28;20231;-59
2021/06/02 12:42:59;;;;;;;1.48;0.90;;;27.90;24.80;;;;;;5113985;27;20207;-58
2021/06/02 12:45:26;;;;;;;3.47;0.88;;;27.80;24.10;;;;;;5113969;28;20238;-58
2021/06/02 12:47:53;;;;;;;3.40;1.40;;;27.90;24.80;;;;;;5113627;28;20554;-65
2021/06/02 12:50:37;;;;;;;2.30;1.20;;;27.90;25.80;;;;;;5113771;28;20214;-62
2021/06/02 12:53:04;;;;;;;2.20;1.00;;;28.10;26.00;;;;;;5113288;28;20223;-63
2021/06/02 12:55:33;;;;;;;1.42;0.77;;;28.10;24.60;;;;;;5094342;28;20220;-62
2021/06/02 12:58:01;;;;;;;1.00;0.90;;;28.10;25.10;;;;;;5093446;28;20253;-61
2021/06/02 13:00:27;;;;;;;0.80;0.77;;;28.10;24.50;;;;;;5093639;28;20680;-62
2021/06/02 13:02:54;;;;;;;0.82;0.70;;;28.00;24.70;;;;;;5093424;28;20201;-66
2021/06/02 13:05:21;;;;;;;4.40;0.80;;;28.00;24.80;;;;;;5093885;28;20273;-59
2021/06/02 13:07:48;;;;;;;1.33;0.88;;;27.90;25.40;;;;;;5093387;28;20299;-59
2021/06/02 13:10:15;;;;;;;2.30;1.00;;;27.80;25.40;;;;;;5091635;28;20219;-60
2021/06/02 13:12:50;;;;;;;2.95;0.80;;;27.90;25.50;;;;;;5093175;28;20257;-63
2021/06/02 13:15:25;;;;;;;2.58;0.77;;;28.00;25.70;;;;;;5093519;28;20296;-62
2021/06/02 13:17:51;;;;;;;1.92;1.27;;;28.00;25.60;;;;;;5094222;28;20277;-63
2021/06/02 13:20:29;;;;;;;1.70;0.90;;;28.10;25.70;;;;;;5093041;28;20204;-62
2021/06/02 13:23:11;;;;;;;3.28;1.08;;;28.20;25.10;;;;;;5093374;28;20250;-61